createdAt,value
2022-11-21T00:05:56.640Z,-0.69
2022-11-21T00:16:18.091Z,-0.74
2022-11-21T00:26:39.733Z,-0.71
2022-11-21T00:37:01.195Z,-0.69
2022-11-21T00:47:22.692Z,-0.69
2022-11-21T00:57:44.131Z,-0.75
2022-11-21T01:08:05.727Z,-0.77
2022-11-21T01:18:27.167Z,-0.81
2022-11-21T01:28:48.991Z,-0.88
2022-11-21T01:39:11.579Z,-0.89
2022-11-21T01:49:33.272Z,-0.85
2022-11-21T01:59:54.675Z,-0.85
2022-11-21T02:10:16.970Z,-0.86
2022-11-21T02:20:41.690Z,-0.86
2022-11-21T02:31:03.193Z,-0.93
2022-11-21T02:41:28.453Z,-1.02
2022-11-21T02:51:49.941Z,-1.14
2022-11-21T03:02:11.403Z,-1.18
2022-11-21T03:12:32.865Z,-1.27
2022-11-21T03:22:54.441Z,-1.28
2022-11-21T03:33:15.891Z,-1.32
2022-11-21T03:43:37.346Z,-1.40
2022-11-21T03:53:59.458Z,-1.43
2022-11-21T04:04:20.908Z,-1.57
2022-11-21T04:14:42.362Z,-1.53
2022-11-21T04:25:03.976Z,-1.54
2022-11-21T04:35:26.735Z,-1.61
2022-11-21T04:45:48.187Z,-1.79
2022-11-21T04:56:09.718Z,-1.77
2022-11-21T05:06:31.186Z,-1.74
2022-11-21T05:16:53.524Z,-1.75
2022-11-21T05:27:15.001Z,-1.82
2022-11-21T05:37:36.542Z,-1.79
2022-11-21T05:47:57.993Z,-1.81
2022-11-21T05:58:19.502Z,-1.83
2022-11-21T06:08:43.946Z,-1.86
2022-11-21T06:19:05.537Z,-1.82
2022-11-21T06:29:26.977Z,-1.78
2022-11-21T06:39:48.770Z,-1.82
2022-11-21T06:50:10.493Z,-1.93
2022-11-21T07:00:31.951Z,-1.87
2022-11-21T07:11:22.919Z,-1.86
2022-11-21T07:21:35.048Z,-1.81
2022-11-21T07:31:56.603Z,-1.75
2022-11-21T07:42:18.079Z,-1.72
2022-11-21T07:52:39.558Z,-1.64
2022-11-21T08:03:01.471Z,-1.49
2022-11-21T08:13:22.847Z,-1.31
2022-11-21T08:23:44.290Z,-1.14
2022-11-21T08:34:09.120Z,-1.02
2022-11-21T08:44:35.311Z,-1.04
2022-11-21T08:54:57.148Z,-0.82
2022-11-21T09:05:18.634Z,-0.66
2022-11-21T09:15:58.690Z,-0.52
2022-11-21T09:26:20.146Z,-0.38
2022-11-21T09:36:41.695Z,-0.40
2022-11-21T09:47:29.352Z,-0.30
2022-11-21T09:57:51.292Z,-0.03
2022-11-21T10:08:29.141Z,0.18
2022-11-21T10:19:26.016Z,0.34
2022-11-21T10:29:54.960Z,0.60
2022-11-21T10:40:36.923Z,0.80
2022-11-21T10:51:01.503Z,1.18
2022-11-21T11:01:34.838Z,1.50
2022-11-21T11:12:54.166Z,1.67
2022-11-21T11:23:17.027Z,1.70
2022-11-21T11:33:39.674Z,1.92
2022-11-21T11:44:33.022Z,2.03
2022-11-21T11:55:03.424Z,2.16
2022-11-21T12:05:26.625Z,2.18
2022-11-21T12:15:52.647Z,2.29
2022-11-21T12:26:20.256Z,2.23
2022-11-21T12:37:08.625Z,2.01
2022-11-21T12:48:01.224Z,1.87
2022-11-21T12:58:36.736Z,1.77
2022-11-21T13:09:02.389Z,1.73
2022-11-21T13:19:45.275Z,1.81
2022-11-21T13:30:06.698Z,1.93
2022-11-21T13:40:28.408Z,2.03
2022-11-21T13:51:08.781Z,2.07
2022-11-21T14:01:39.852Z,2.18
2022-11-21T14:12:03.049Z,2.16
2022-11-21T14:22:33.591Z,2.18
2022-11-21T14:32:57.179Z,2.13
2022-11-21T14:43:30.728Z,2.11
2022-11-21T14:53:53.674Z,2.05
2022-11-21T15:04:16.350Z,1.94
2022-11-21T15:15:02.357Z,1.72
2022-11-21T15:25:27.565Z,1.56
2022-11-21T15:35:56.741Z,1.42
2022-11-21T15:46:27.306Z,1.25
2022-11-21T15:56:49.173Z,1.16
2022-11-21T16:07:10.837Z,1.09
2022-11-21T16:17:32.386Z,1.04
2022-11-21T16:27:53.852Z,0.99
2022-11-21T16:38:15.437Z,1.08
2022-11-21T16:48:36.898Z,1.16
2022-11-21T16:58:58.379Z,1.17
2022-11-21T17:09:19.856Z,1.07
2022-11-21T17:19:41.514Z,1.00
2022-11-21T17:30:04.439Z,0.91
2022-11-21T17:40:25.886Z,0.90
2022-11-21T17:50:47.371Z,0.96
2022-11-21T18:01:13.759Z,0.82
2022-11-21T18:11:39.839Z,0.69
2022-11-21T18:22:01.847Z,0.60
2022-11-21T18:32:23.294Z,0.49
2022-11-21T18:42:44.804Z,0.34
2022-11-21T18:53:06.267Z,0.22
2022-11-21T19:03:28.051Z,0.13
2022-11-21T19:13:50.208Z,0.07
2022-11-21T19:24:13.724Z,0.08
2022-11-21T19:34:35.387Z,0.15
2022-11-21T19:44:58.246Z,0.18
2022-11-21T19:55:19.784Z,0.04
2022-11-21T20:05:41.304Z,-0.07
2022-11-21T20:16:02.794Z,-0.22
2022-11-21T20:26:25.366Z,-0.23
2022-11-21T20:36:47.013Z,-0.26
2022-11-21T20:47:09.151Z,-0.33
2022-11-21T20:57:30.858Z,-0.39
2022-11-21T21:07:52.998Z,-0.30
2022-11-21T21:18:14.480Z,-0.33
2022-11-21T21:28:36.021Z,-0.28
2022-11-21T21:38:58.940Z,-0.30
2022-11-21T21:49:20.371Z,-0.21
2022-11-21T21:59:41.821Z,-0.18
2022-11-21T22:10:03.641Z,-0.18
2022-11-21T22:20:25.114Z,-0.19
2022-11-21T22:30:57.361Z,-0.19
2022-11-21T22:41:21.783Z,-0.21
2022-11-21T22:51:43.656Z,-0.24
2022-11-21T23:02:05.340Z,-0.26
2022-11-21T23:12:27.216Z,-0.24
2022-11-21T23:22:48.684Z,-0.13
2022-11-21T23:33:10.787Z,-0.09
2022-11-21T23:43:32.289Z,-0.02
2022-11-21T23:53:53.773Z,0.11
